METAR Data
IDs: Format: Raw Decoded Include TAF

Data at: 2035 UTC 13 Aug 2020

METAR for:KHLB (Batesville Arpt, IN, US)
Text:KHLB 132015Z AUTO 00000KT 10SM SCT035 SCT055 SCT070 28/22 A3003 RMK A01
Temperature: 28.0°C ( 82°F)
Dewpoint: 22.0°C ( 72°F) [RH = 70%]
Pressure (altimeter):30.03 inches Hg (1017.0 mb)
Winds:calm
Visibility:10 or more sm (16+ km)
Ceiling:at least 12,000 feet AGL
Clouds: scattered clouds at 3500 feet AGL, scattered clouds at 5500 feet AGL, scattered clouds at 7000 feet AGL
QC Flag:automated observation with no human augmentation
Text:KHLB 131955Z AUTO 06005KT 10SM FEW034 SCT046 SCT050 29/22 A3003 RMK A01
Temperature: 29.0°C ( 84°F)
Dewpoint: 22.0°C ( 72°F) [RH = 66%]
Pressure (altimeter):30.03 inches Hg (1017.0 mb)
Winds:from the ENE (60 degrees) at 6 MPH (5 knots; 2.6 m/s)
Visibility:10 or more sm (16+ km)
Ceiling:at least 12,000 feet AGL
Clouds: few clouds at 3400 feet AGL, scattered clouds at 4600 feet AGL, scattered clouds at 5000 feet AGL
QC Flag:automated observation with no human augmentation
Text:KHLB 131935Z AUTO VRB04KT 10SM SCT034 BKN044 BKN050 30/22 A3003 RMK A01
Temperature: 30.0°C ( 86°F)
Dewpoint: 22.0°C ( 72°F) [RH = 62%]
Pressure (altimeter):30.03 inches Hg (1017.0 mb)
Winds:variable direction winds at 5 MPH (4 knots; 2.1 m/s)
Visibility:10 or more sm (16+ km)
Ceiling:4400 feet AGL
Clouds: scattered clouds at 3400 feet AGL, broken clouds at 4400 feet AGL, broken clouds at 5000 feet AGL
QC Flag:automated observation with no human augmentation
Text:KHLB 131915Z AUTO 07006KT 10SM SCT033 BKN042 29/22 A3005 RMK A01
Temperature: 29.0°C ( 84°F)
Dewpoint: 22.0°C ( 72°F) [RH = 66%]
Pressure (altimeter):30.05 inches Hg (1017.7 mb)
Winds:from the ENE (70 degrees) at 7 MPH (6 knots; 3.1 m/s)
Visibility:10 or more sm (16+ km)
Ceiling:4200 feet AGL
Clouds: scattered clouds at 3300 feet AGL, broken clouds at 4200 feet AGL
QC Flag:automated observation with no human augmentation
Text:KHLB 131855Z AUTO VRB03KT 10SM FEW050 29/21 A3005 RMK A01
Temperature: 29.0°C ( 84°F)
Dewpoint: 21.0°C ( 70°F) [RH = 62%]
Pressure (altimeter):30.05 inches Hg (1017.7 mb)
Winds:variable direction winds at 3 MPH (3 knots; 1.5 m/s)
Visibility:10 or more sm (16+ km)
Ceiling:at least 12,000 feet AGL
Clouds: few clouds at 5000 feet AGL
QC Flag:automated observation with no human augmentation
Text:KHLB 131835Z AUTO 10004KT 10SM FEW033 FEW038 SCT050 28/22 A3006 RMK A01
Temperature: 28.0°C ( 82°F)
Dewpoint: 22.0°C ( 72°F) [RH = 70%]
Pressure (altimeter):30.06 inches Hg (1018.0 mb)
Winds:from the E (100 degrees) at 5 MPH (4 knots; 2.1 m/s)
Visibility:10 or more sm (16+ km)
Ceiling:at least 12,000 feet AGL
Clouds: few clouds at 3300 feet AGL, few clouds at 3800 feet AGL, scattered clouds at 5000 feet AGL
QC Flag:automated observation with no human augmentation
Text:KHLB 131815Z AUTO VRB04KT 10SM FEW032 29/22 A3007 RMK A01
Temperature: 29.0°C ( 84°F)
Dewpoint: 22.0°C ( 72°F) [RH = 66%]
Pressure (altimeter):30.07 inches Hg (1018.4 mb)
Winds:variable direction winds at 5 MPH (4 knots; 2.1 m/s)
Visibility:10 or more sm (16+ km)
Ceiling:at least 12,000 feet AGL
Clouds: few clouds at 3200 feet AGL
QC Flag:automated observation with no human augmentation
Text:KHLB 131755Z AUTO 04005KT 10SM FEW050 FEW055 29/22 A3008 RMK A01
Temperature: 29.0°C ( 84°F)
Dewpoint: 22.0°C ( 72°F) [RH = 66%]
Pressure (altimeter):30.08 inches Hg (1018.7 mb)
Winds:from the NE (40 degrees) at 6 MPH (5 knots; 2.6 m/s)
Visibility:10 or more sm (16+ km)
Ceiling:at least 12,000 feet AGL
Clouds: few clouds at 5000 feet AGL, few clouds at 5500 feet AGL
QC Flag:automated observation with no human augmentation
Text:KHLB 131735Z AUTO 07004KT 10SM FEW032 SCT045 BKN050 28/22 A3009 RMK A01
Temperature: 28.0°C ( 82°F)
Dewpoint: 22.0°C ( 72°F) [RH = 70%]
Pressure (altimeter):30.09 inches Hg (1019.0 mb)
Winds:from the ENE (70 degrees) at 5 MPH (4 knots; 2.1 m/s)
Visibility:10 or more sm (16+ km)
Ceiling:5000 feet AGL
Clouds: few clouds at 3200 feet AGL, scattered clouds at 4500 feet AGL, broken clouds at 5000 feet AGL
QC Flag:automated observation with no human augmentation
Text:KHLB 131715Z AUTO 10004KT 10SM BKN032 BKN037 OVC044 28/22 A3009 RMK A01
Temperature: 28.0°C ( 82°F)
Dewpoint: 22.0°C ( 72°F) [RH = 70%]
Pressure (altimeter):30.09 inches Hg (1019.0 mb)
Winds:from the E (100 degrees) at 5 MPH (4 knots; 2.1 m/s)
Visibility:10 or more sm (16+ km)
Ceiling:3200 feet AGL
Clouds: broken clouds at 3200 feet AGL, broken clouds at 3700 feet AGL, overcast cloud deck at 4400 feet AGL
QC Flag:automated observation with no human augmentation
Text:KHLB 131655Z AUTO 06004KT 10SM BKN032 28/21 A3009 RMK A01
Temperature: 28.0°C ( 82°F)
Dewpoint: 21.0°C ( 70°F) [RH = 66%]
Pressure (altimeter):30.09 inches Hg (1019.0 mb)
Winds:from the ENE (60 degrees) at 5 MPH (4 knots; 2.1 m/s)
Visibility:10 or more sm (16+ km)
Ceiling:3200 feet AGL
Clouds: broken clouds at 3200 feet AGL
QC Flag:automated observation with no human augmentation
Text:KHLB 131635Z AUTO 00000KT 10SM FEW032 28/21 A3009 RMK A01
Temperature: 28.0°C ( 82°F)
Dewpoint: 21.0°C ( 70°F) [RH = 66%]
Pressure (altimeter):30.09 inches Hg (1019.0 mb)
Winds:calm
Visibility:10 or more sm (16+ km)
Ceiling:at least 12,000 feet AGL
Clouds: few clouds at 3200 feet AGL
QC Flag:automated observation with no human augmentation
Text:KHLB 131615Z AUTO 10004KT 10SM FEW036 FEW042 28/22 A3009 RMK A01
Temperature: 28.0°C ( 82°F)
Dewpoint: 22.0°C ( 72°F) [RH = 70%]
Pressure (altimeter):30.09 inches Hg (1019.0 mb)
Winds:from the E (100 degrees) at 5 MPH (4 knots; 2.1 m/s)
Visibility:10 or more sm (16+ km)
Ceiling:at least 12,000 feet AGL
Clouds: few clouds at 3600 feet AGL, few clouds at 4200 feet AGL
QC Flag:automated observation with no human augmentation
Text:KHLB 131555Z AUTO 00000KT 10SM SCT036 SCT042 28/22 A3009 RMK A01
Temperature: 28.0°C ( 82°F)
Dewpoint: 22.0°C ( 72°F) [RH = 70%]
Pressure (altimeter):30.09 inches Hg (1019.0 mb)
Winds:calm
Visibility:10 or more sm (16+ km)
Ceiling:at least 12,000 feet AGL
Clouds: scattered clouds at 3600 feet AGL, scattered clouds at 4200 feet AGL
QC Flag:automated observation with no human augmentation
Text:KHLB 131535Z AUTO 00000KT 10SM FEW032 SCT050 SCT055 26/23 A3009 RMK A01
Temperature: 26.0°C ( 79°F)
Dewpoint: 23.0°C ( 73°F) [RH = 84%]
Pressure (altimeter):30.09 inches Hg (1019.0 mb)
Winds:calm
Visibility:10 or more sm (16+ km)
Ceiling:at least 12,000 feet AGL
Clouds: few clouds at 3200 feet AGL, scattered clouds at 5000 feet AGL, scattered clouds at 5500 feet AGL
QC Flag:automated observation with no human augmentation
Text:KHLB 131515Z AUTO 00000KT 10SM SCT032 BKN050 BKN055 25/23 A3010 RMK A01
Temperature: 25.0°C ( 77°F)
Dewpoint: 23.0°C ( 73°F) [RH = 89%]
Pressure (altimeter):30.10 inches Hg (1019.4 mb)
Winds:calm
Visibility:10 or more sm (16+ km)
Ceiling:5000 feet AGL
Clouds: scattered clouds at 3200 feet AGL, broken clouds at 5000 feet AGL, broken clouds at 5500 feet AGL
QC Flag:automated observation with no human augmentation
Text:KHLB 131455Z AUTO 04003KT 10SM FEW028 SCT033 BKN049 25/24 A3009 RMK A01
Temperature: 25.0°C ( 77°F)
Dewpoint: 24.0°C ( 75°F) [RH = 94%]
Pressure (altimeter):30.09 inches Hg (1019.0 mb)
Winds:from the NE (40 degrees) at 3 MPH (3 knots; 1.5 m/s)
Visibility:10 or more sm (16+ km)
Ceiling:4900 feet AGL
Clouds: few clouds at 2800 feet AGL, scattered clouds at 3300 feet AGL, broken clouds at 4900 feet AGL
QC Flag:automated observation with no human augmentation
Text:KHLB 131435Z AUTO 00000KT 10SM BKN028 BKN033 OVC044 24/23 A3010 RMK A01
Temperature: 24.0°C ( 75°F)
Dewpoint: 23.0°C ( 73°F) [RH = 94%]
Pressure (altimeter):30.10 inches Hg (1019.4 mb)
Winds:calm
Visibility:10 or more sm (16+ km)
Ceiling:2800 feet AGL
Clouds: broken clouds at 2800 feet AGL, broken clouds at 3300 feet AGL, overcast cloud deck at 4400 feet AGL
QC Flag:automated observation with no human augmentation
Text:KHLB 131415Z AUTO 00000KT 10SM BKN043 BKN050 24/24 A3009 RMK A01
Temperature: 24.0°C ( 75°F)
Dewpoint: 24.0°C ( 75°F) [RH = 100%]
Pressure (altimeter):30.09 inches Hg (1019.0 mb)
Winds:calm
Visibility:10 or more sm (16+ km)
Ceiling:4300 feet AGL
Clouds: broken clouds at 4300 feet AGL, broken clouds at 5000 feet AGL
QC Flag:automated observation with no human augmentation
Text:KHLB 131355Z AUTO 01003KT 10SM FEW044 BKN050 22/22 A3010 RMK A01
Temperature: 22.0°C ( 72°F)
Dewpoint: 22.0°C ( 72°F) [RH = 100%]
Pressure (altimeter):30.10 inches Hg (1019.4 mb)
Winds:from the N (10 degrees) at 3 MPH (3 knots; 1.5 m/s)
Visibility:10 or more sm (16+ km)
Ceiling:5000 feet AGL
Clouds: few clouds at 4400 feet AGL, broken clouds at 5000 feet AGL
QC Flag:automated observation with no human augmentation
Text:KHLB 131335Z AUTO 00000KT 10SM OVC050 22/22 A3010 RMK A01
Temperature: 22.0°C ( 72°F)
Dewpoint: 22.0°C ( 72°F) [RH = 100%]
Pressure (altimeter):30.10 inches Hg (1019.4 mb)
Winds:calm
Visibility:10 or more sm (16+ km)
Ceiling:5000 feet AGL
Clouds: overcast cloud deck at 5000 feet AGL
QC Flag:automated observation with no human augmentation
Text:KHLB 131315Z AUTO 00000KT 10SM BKN050 21/21 A3010 RMK A01
Temperature: 21.0°C ( 70°F)
Dewpoint: 21.0°C ( 70°F) [RH = 100%]
Pressure (altimeter):30.10 inches Hg (1019.4 mb)
Winds:calm
Visibility:10 or more sm (16+ km)
Ceiling:5000 feet AGL
Clouds: broken clouds at 5000 feet AGL
QC Flag:automated observation with no human augmentation
Text:KHLB 131255Z AUTO 00000KT 10SM BKN050 21/21 A3009 RMK A01
Temperature: 21.0°C ( 70°F)
Dewpoint: 21.0°C ( 70°F) [RH = 100%]
Pressure (altimeter):30.09 inches Hg (1019.0 mb)
Winds:calm
Visibility:10 or more sm (16+ km)
Ceiling:5000 feet AGL
Clouds: broken clouds at 5000 feet AGL
QC Flag:automated observation with no human augmentation
Text:KHLB 131235Z AUTO 00000KT 10SM SCT050 20/20 A3009 RMK A01
Temperature: 20.0°C ( 68°F)
Dewpoint: 20.0°C ( 68°F) [RH = 100%]
Pressure (altimeter):30.09 inches Hg (1019.0 mb)
Winds:calm
Visibility:10 or more sm (16+ km)
Ceiling:at least 12,000 feet AGL
Clouds: scattered clouds at 5000 feet AGL
QC Flag:automated observation with no human augmentation
Text:KHLB 131215Z AUTO 00000KT 10SM SCT033 20/20 A3009 RMK A01
Temperature: 20.0°C ( 68°F)
Dewpoint: 20.0°C ( 68°F) [RH = 100%]
Pressure (altimeter):30.09 inches Hg (1019.0 mb)
Winds:calm
Visibility:10 or more sm (16+ km)
Ceiling:at least 12,000 feet AGL
Clouds: scattered clouds at 3300 feet AGL
QC Flag:automated observation with no human augmentation
Text:KHLB 131155Z AUTO 00000KT 10SM BKN031 20/20 A3009 RMK A01
Temperature: 20.0°C ( 68°F)
Dewpoint: 20.0°C ( 68°F) [RH = 100%]
Pressure (altimeter):30.09 inches Hg (1019.0 mb)
Winds:calm
Visibility:10 or more sm (16+ km)
Ceiling:3100 feet AGL
Clouds: broken clouds at 3100 feet AGL
QC Flag:automated observation with no human augmentation
Text:KHLB 131135Z AUTO 00000KT 10SM BKN031 BKN043 19/19 A3009 RMK A01
Temperature: 19.0°C ( 66°F)
Dewpoint: 19.0°C ( 66°F) [RH = 100%]
Pressure (altimeter):30.09 inches Hg (1019.0 mb)
Winds:calm
Visibility:10 or more sm (16+ km)
Ceiling:3100 feet AGL
Clouds: broken clouds at 3100 feet AGL, broken clouds at 4300 feet AGL
QC Flag:automated observation with no human augmentation
Text:KHLB 131115Z AUTO 00000KT 10SM SCT042 BKN049 19/19 A3009 RMK A01
Temperature: 19.0°C ( 66°F)
Dewpoint: 19.0°C ( 66°F) [RH = 100%]
Pressure (altimeter):30.09 inches Hg (1019.0 mb)
Winds:calm
Visibility:10 or more sm (16+ km)
Ceiling:4900 feet AGL
Clouds: scattered clouds at 4200 feet AGL, broken clouds at 4900 feet AGL
QC Flag:automated observation with no human augmentation
Text:KHLB 131055Z AUTO 00000KT 10SM OVC040 19/19 A3009 RMK A01
Temperature: 19.0°C ( 66°F)
Dewpoint: 19.0°C ( 66°F) [RH = 100%]
Pressure (altimeter):30.09 inches Hg (1019.0 mb)
Winds:calm
Visibility:10 or more sm (16+ km)
Ceiling:4000 feet AGL
Clouds: overcast cloud deck at 4000 feet AGL
QC Flag:automated observation with no human augmentation
Text:KHLB 131035Z AUTO 00000KT 10SM OVC040 19/19 A3008 RMK A01
Temperature: 19.0°C ( 66°F)
Dewpoint: 19.0°C ( 66°F) [RH = 100%]
Pressure (altimeter):30.08 inches Hg (1018.7 mb)
Winds:calm
Visibility:10 or more sm (16+ km)
Ceiling:4000 feet AGL
Clouds: overcast cloud deck at 4000 feet AGL
QC Flag:automated observation with no human augmentation
Text:KHLB 131015Z AUTO 00000KT 10SM BKN040 19/19 A3008 RMK A01
Temperature: 19.0°C ( 66°F)
Dewpoint: 19.0°C ( 66°F) [RH = 100%]
Pressure (altimeter):30.08 inches Hg (1018.7 mb)
Winds:calm
Visibility:10 or more sm (16+ km)
Ceiling:4000 feet AGL
Clouds: broken clouds at 4000 feet AGL
QC Flag:automated observation with no human augmentation
Text:KHLB 130955Z AUTO 00000KT 10SM BKN041 19/19 A3007 RMK A01
Temperature: 19.0°C ( 66°F)
Dewpoint: 19.0°C ( 66°F) [RH = 100%]
Pressure (altimeter):30.07 inches Hg (1018.4 mb)
Winds:calm
Visibility:10 or more sm (16+ km)
Ceiling:4100 feet AGL
Clouds: broken clouds at 4100 feet AGL
QC Flag:automated observation with no human augmentation
Text:KHLB 130935Z AUTO 00000KT 10SM OVC041 19/19 A3007 RMK A01
Temperature: 19.0°C ( 66°F)
Dewpoint: 19.0°C ( 66°F) [RH = 100%]
Pressure (altimeter):30.07 inches Hg (1018.4 mb)
Winds:calm
Visibility:10 or more sm (16+ km)
Ceiling:4100 feet AGL
Clouds: overcast cloud deck at 4100 feet AGL
QC Flag:automated observation with no human augmentation
Text:KHLB 130915Z AUTO 00000KT 10SM OVC042 20/20 A3007 RMK A01
Temperature: 20.0°C ( 68°F)
Dewpoint: 20.0°C ( 68°F) [RH = 100%]
Pressure (altimeter):30.07 inches Hg (1018.4 mb)
Winds:calm
Visibility:10 or more sm (16+ km)
Ceiling:4200 feet AGL
Clouds: overcast cloud deck at 4200 feet AGL
QC Flag:automated observation with no human augmentation
Text:KHLB 130855Z AUTO 04003KT 10SM OVC043 20/20 A3007 RMK A01
Temperature: 20.0°C ( 68°F)
Dewpoint: 20.0°C ( 68°F) [RH = 100%]
Pressure (altimeter):30.07 inches Hg (1018.4 mb)
Winds:from the NE (40 degrees) at 3 MPH (3 knots; 1.5 m/s)
Visibility:10 or more sm (16+ km)
Ceiling:4300 feet AGL
Clouds: overcast cloud deck at 4300 feet AGL
QC Flag:automated observation with no human augmentation
Text:KHLB 130835Z AUTO 00000KT 10SM OVC044 20/20 A3007 RMK A01
Temperature: 20.0°C ( 68°F)
Dewpoint: 20.0°C ( 68°F) [RH = 100%]
Pressure (altimeter):30.07 inches Hg (1018.4 mb)
Winds:calm
Visibility:10 or more sm (16+ km)
Ceiling:4400 feet AGL
Clouds: overcast cloud deck at 4400 feet AGL
QC Flag:automated observation with no human augmentation
Text:KHLB 130815Z AUTO 00000KT 10SM OVC043 20/20 A3007 RMK A01
Temperature: 20.0°C ( 68°F)
Dewpoint: 20.0°C ( 68°F) [RH = 100%]
Pressure (altimeter):30.07 inches Hg (1018.4 mb)
Winds:calm
Visibility:10 or more sm (16+ km)
Ceiling:4300 feet AGL
Clouds: overcast cloud deck at 4300 feet AGL
QC Flag:automated observation with no human augmentation
Text:KHLB 130755Z AUTO 00000KT 10SM OVC044 20/20 A3008 RMK A01
Temperature: 20.0°C ( 68°F)
Dewpoint: 20.0°C ( 68°F) [RH = 100%]
Pressure (altimeter):30.08 inches Hg (1018.7 mb)
Winds:calm
Visibility:10 or more sm (16+ km)
Ceiling:4400 feet AGL
Clouds: overcast cloud deck at 4400 feet AGL
QC Flag:automated observation with no human augmentation
Text:KHLB 130735Z AUTO 00000KT 10SM OVC044 20/20 A3008 RMK A01
Temperature: 20.0°C ( 68°F)
Dewpoint: 20.0°C ( 68°F) [RH = 100%]
Pressure (altimeter):30.08 inches Hg (1018.7 mb)
Winds:calm
Visibility:10 or more sm (16+ km)
Ceiling:4400 feet AGL
Clouds: overcast cloud deck at 4400 feet AGL
QC Flag:automated observation with no human augmentation
Text:KHLB 130715Z AUTO 00000KT 9SM OVC043 20/20 A3007 RMK A01
Temperature: 20.0°C ( 68°F)
Dewpoint: 20.0°C ( 68°F) [RH = 100%]
Pressure (altimeter):30.07 inches Hg (1018.4 mb)
Winds:calm
Visibility: 9 sm ( 14 km)
Ceiling:4300 feet AGL
Clouds: overcast cloud deck at 4300 feet AGL
QC Flag:automated observation with no human augmentation
Text:KHLB 130655Z AUTO 00000KT 10SM OVC040 20/20 A3008 RMK A01
Temperature: 20.0°C ( 68°F)
Dewpoint: 20.0°C ( 68°F) [RH = 100%]
Pressure (altimeter):30.08 inches Hg (1018.7 mb)
Winds:calm
Visibility:10 or more sm (16+ km)
Ceiling:4000 feet AGL
Clouds: overcast cloud deck at 4000 feet AGL
QC Flag:automated observation with no human augmentation
Text:KHLB 130635Z AUTO 00000KT 10SM BKN040 20/20 A3008 RMK A01
Temperature: 20.0°C ( 68°F)
Dewpoint: 20.0°C ( 68°F) [RH = 100%]
Pressure (altimeter):30.08 inches Hg (1018.7 mb)
Winds:calm
Visibility:10 or more sm (16+ km)
Ceiling:4000 feet AGL
Clouds: broken clouds at 4000 feet AGL
QC Flag:automated observation with no human augmentation
Text:KHLB 130615Z AUTO 00000KT 10SM BKN039 20/20 A3008 RMK A01
Temperature: 20.0°C ( 68°F)
Dewpoint: 20.0°C ( 68°F) [RH = 100%]
Pressure (altimeter):30.08 inches Hg (1018.7 mb)
Winds:calm
Visibility:10 or more sm (16+ km)
Ceiling:3900 feet AGL
Clouds: broken clouds at 3900 feet AGL
QC Flag:automated observation with no human augmentation
Text:KHLB 130555Z AUTO 00000KT 10SM BKN039 20/20 A3008 RMK A01
Temperature: 20.0°C ( 68°F)
Dewpoint: 20.0°C ( 68°F) [RH = 100%]
Pressure (altimeter):30.08 inches Hg (1018.7 mb)
Winds:calm
Visibility:10 or more sm (16+ km)
Ceiling:3900 feet AGL
Clouds: broken clouds at 3900 feet AGL
QC Flag:automated observation with no human augmentation
Text:KHLB 130535Z AUTO 00000KT 10SM BKN038 BKN045 20/20 A3008 RMK A01
Temperature: 20.0°C ( 68°F)
Dewpoint: 20.0°C ( 68°F) [RH = 100%]
Pressure (altimeter):30.08 inches Hg (1018.7 mb)
Winds:calm
Visibility:10 or more sm (16+ km)
Ceiling:3800 feet AGL
Clouds: broken clouds at 3800 feet AGL, broken clouds at 4500 feet AGL
QC Flag:automated observation with no human augmentation
Text:KHLB 130515Z AUTO 00000KT 10SM FEW040 SCT045 21/21 A3008 RMK A01
Temperature: 21.0°C ( 70°F)
Dewpoint: 21.0°C ( 70°F) [RH = 100%]
Pressure (altimeter):30.08 inches Hg (1018.7 mb)
Winds:calm
Visibility:10 or more sm (16+ km)
Ceiling:at least 12,000 feet AGL
Clouds: few clouds at 4000 feet AGL, scattered clouds at 4500 feet AGL
QC Flag:automated observation with no human augmentation
Text:KHLB 130455Z AUTO 00000KT 10SM SCT037 SCT045 21/21 A3008 RMK A01
Temperature: 21.0°C ( 70°F)
Dewpoint: 21.0°C ( 70°F) [RH = 100%]
Pressure (altimeter):30.08 inches Hg (1018.7 mb)
Winds:calm
Visibility:10 or more sm (16+ km)
Ceiling:at least 12,000 feet AGL
Clouds: scattered clouds at 3700 feet AGL, scattered clouds at 4500 feet AGL
QC Flag:automated observation with no human augmentation
Text:KHLB 130435Z AUTO 00000KT 10SM OVC037 21/21 A3008 RMK A01
Temperature: 21.0°C ( 70°F)
Dewpoint: 21.0°C ( 70°F) [RH = 100%]
Pressure (altimeter):30.08 inches Hg (1018.7 mb)
Winds:calm
Visibility:10 or more sm (16+ km)
Ceiling:3700 feet AGL
Clouds: overcast cloud deck at 3700 feet AGL
QC Flag:automated observation with no human augmentation
Text:KHLB 130415Z AUTO 00000KT 10SM OVC038 21/21 A3008 RMK A01
Temperature: 21.0°C ( 70°F)
Dewpoint: 21.0°C ( 70°F) [RH = 100%]
Pressure (altimeter):30.08 inches Hg (1018.7 mb)
Winds:calm
Visibility:10 or more sm (16+ km)
Ceiling:3800 feet AGL
Clouds: overcast cloud deck at 3800 feet AGL
QC Flag:automated observation with no human augmentation
Text:KHLB 130355Z AUTO 00000KT 10SM OVC040 21/21 A3008 RMK A01
Temperature: 21.0°C ( 70°F)
Dewpoint: 21.0°C ( 70°F) [RH = 100%]
Pressure (altimeter):30.08 inches Hg (1018.7 mb)
Winds:calm
Visibility:10 or more sm (16+ km)
Ceiling:4000 feet AGL
Clouds: overcast cloud deck at 4000 feet AGL
QC Flag:automated observation with no human augmentation
Text:KHLB 130335Z AUTO 00000KT 10SM OVC041 21/21 A3008 RMK A01
Temperature: 21.0°C ( 70°F)
Dewpoint: 21.0°C ( 70°F) [RH = 100%]
Pressure (altimeter):30.08 inches Hg (1018.7 mb)
Winds:calm
Visibility:10 or more sm (16+ km)
Ceiling:4100 feet AGL
Clouds: overcast cloud deck at 4100 feet AGL
QC Flag:automated observation with no human augmentation
Text:KHLB 130315Z AUTO 00000KT 10SM BKN040 21/21 A3008 RMK A01
Temperature: 21.0°C ( 70°F)
Dewpoint: 21.0°C ( 70°F) [RH = 100%]
Pressure (altimeter):30.08 inches Hg (1018.7 mb)
Winds:calm
Visibility:10 or more sm (16+ km)
Ceiling:4000 feet AGL
Clouds: broken clouds at 4000 feet AGL
QC Flag:automated observation with no human augmentation
Text:KHLB 130255Z AUTO 00000KT 10SM CLR 21/21 A3008 RMK A01
Temperature: 21.0°C ( 70°F)
Dewpoint: 21.0°C ( 70°F) [RH = 100%]
Pressure (altimeter):30.08 inches Hg (1018.7 mb)
Winds:calm
Visibility:10 or more sm (16+ km)
Ceiling:at least 12,000 feet AGL
Clouds:sky clear below 12,000 feet AGL
QC Flag:automated observation with no human augmentation
Text:KHLB 130235Z AUTO 00000KT 10SM CLR 22/22 A3008 RMK A01
Temperature: 22.0°C ( 72°F)
Dewpoint: 22.0°C ( 72°F) [RH = 100%]
Pressure (altimeter):30.08 inches Hg (1018.7 mb)
Winds:calm
Visibility:10 or more sm (16+ km)
Ceiling:at least 12,000 feet AGL
Clouds:sky clear below 12,000 feet AGL
QC Flag:automated observation with no human augmentation
Text:KHLB 130215Z AUTO 00000KT 10SM SCT039 22/22 A3008 RMK A01
Temperature: 22.0°C ( 72°F)
Dewpoint: 22.0°C ( 72°F) [RH = 100%]
Pressure (altimeter):30.08 inches Hg (1018.7 mb)
Winds:calm
Visibility:10 or more sm (16+ km)
Ceiling:at least 12,000 feet AGL
Clouds: scattered clouds at 3900 feet AGL
QC Flag:automated observation with no human augmentation
Text:KHLB 130155Z AUTO 00000KT 10SM BKN038 21/21 A3007 RMK A01
Temperature: 21.0°C ( 70°F)
Dewpoint: 21.0°C ( 70°F) [RH = 100%]
Pressure (altimeter):30.07 inches Hg (1018.4 mb)
Winds:calm
Visibility:10 or more sm (16+ km)
Ceiling:3800 feet AGL
Clouds: broken clouds at 3800 feet AGL
QC Flag:automated observation with no human augmentation
Text:KHLB 130135Z AUTO 00000KT 10SM CLR 21/21 A3007 RMK A01
Temperature: 21.0°C ( 70°F)
Dewpoint: 21.0°C ( 70°F) [RH = 100%]
Pressure (altimeter):30.07 inches Hg (1018.4 mb)
Winds:calm
Visibility:10 or more sm (16+ km)
Ceiling:at least 12,000 feet AGL
Clouds:sky clear below 12,000 feet AGL
QC Flag:automated observation with no human augmentation
Text:KHLB 130115Z AUTO 00000KT 10SM CLR 22/22 A3006 RMK A01
Temperature: 22.0°C ( 72°F)
Dewpoint: 22.0°C ( 72°F) [RH = 100%]
Pressure (altimeter):30.06 inches Hg (1018.0 mb)
Winds:calm
Visibility:10 or more sm (16+ km)
Ceiling:at least 12,000 feet AGL
Clouds:sky clear below 12,000 feet AGL
QC Flag:automated observation with no human augmentation
Text:KHLB 130055Z AUTO 00000KT 10SM CLR 22/22 A3006 RMK A01
Temperature: 22.0°C ( 72°F)
Dewpoint: 22.0°C ( 72°F) [RH = 100%]
Pressure (altimeter):30.06 inches Hg (1018.0 mb)
Winds:calm
Visibility:10 or more sm (16+ km)
Ceiling:at least 12,000 feet AGL
Clouds:sky clear below 12,000 feet AGL
QC Flag:automated observation with no human augmentation
Text:KHLB 130035Z AUTO 00000KT 10SM CLR 23/23 A3006 RMK A01
Temperature: 23.0°C ( 73°F)
Dewpoint: 23.0°C ( 73°F) [RH = 100%]
Pressure (altimeter):30.06 inches Hg (1018.0 mb)
Winds:calm
Visibility:10 or more sm (16+ km)
Ceiling:at least 12,000 feet AGL
Clouds:sky clear below 12,000 feet AGL
QC Flag:automated observation with no human augmentation
Text:KHLB 130015Z AUTO 00000KT 10SM CLR 25/24 A3006 RMK A01
Temperature: 25.0°C ( 77°F)
Dewpoint: 24.0°C ( 75°F) [RH = 94%]
Pressure (altimeter):30.06 inches Hg (1018.0 mb)
Winds:calm
Visibility:10 or more sm (16+ km)
Ceiling:at least 12,000 feet AGL
Clouds:sky clear below 12,000 feet AGL
QC Flag:automated observation with no human augmentation
Text:KHLB 122355Z AUTO 00000KT 10SM CLR 26/23 A3006 RMK A01
Temperature: 26.0°C ( 79°F)
Dewpoint: 23.0°C ( 73°F) [RH = 84%]
Pressure (altimeter):30.06 inches Hg (1018.0 mb)
Winds:calm
Visibility:10 or more sm (16+ km)
Ceiling:at least 12,000 feet AGL
Clouds:sky clear below 12,000 feet AGL
QC Flag:automated observation with no human augmentation
Text:KHLB 122335Z AUTO 00000KT 10SM CLR 27/22 A3006 RMK A01
Temperature: 27.0°C ( 81°F)
Dewpoint: 22.0°C ( 72°F) [RH = 74%]
Pressure (altimeter):30.06 inches Hg (1018.0 mb)
Winds:calm
Visibility:10 or more sm (16+ km)
Ceiling:at least 12,000 feet AGL
Clouds:sky clear below 12,000 feet AGL
QC Flag:automated observation with no human augmentation
Text:KHLB 122315Z AUTO VRB04KT 10SM CLR 27/21 A3005 RMK A01
Temperature: 27.0°C ( 81°F)
Dewpoint: 21.0°C ( 70°F) [RH = 70%]
Pressure (altimeter):30.05 inches Hg (1017.7 mb)
Winds:variable direction winds at 5 MPH (4 knots; 2.1 m/s)
Visibility:10 or more sm (16+ km)
Ceiling:at least 12,000 feet AGL
Clouds:sky clear below 12,000 feet AGL
QC Flag:automated observation with no human augmentation
Text:KHLB 122255Z AUTO 00000KT 10SM FEW031 28/21 A3005 RMK A01
Temperature: 28.0°C ( 82°F)
Dewpoint: 21.0°C ( 70°F) [RH = 66%]
Pressure (altimeter):30.05 inches Hg (1017.7 mb)
Winds:calm
Visibility:10 or more sm (16+ km)
Ceiling:at least 12,000 feet AGL
Clouds: few clouds at 3100 feet AGL
QC Flag:automated observation with no human augmentation
Text:KHLB 122235Z AUTO VRB05KT 10SM BKN031 28/22 A3005 RMK A01
Temperature: 28.0°C ( 82°F)
Dewpoint: 22.0°C ( 72°F) [RH = 70%]
Pressure (altimeter):30.05 inches Hg (1017.7 mb)
Winds:variable direction winds at 6 MPH (5 knots; 2.6 m/s)
Visibility:10 or more sm (16+ km)
Ceiling:3100 feet AGL
Clouds: broken clouds at 3100 feet AGL
QC Flag:automated observation with no human augmentation
Text:KHLB 122215Z AUTO 00000KT 10SM CLR 28/22 A3005 RMK A01
Temperature: 28.0°C ( 82°F)
Dewpoint: 22.0°C ( 72°F) [RH = 70%]
Pressure (altimeter):30.05 inches Hg (1017.7 mb)
Winds:calm
Visibility:10 or more sm (16+ km)
Ceiling:at least 12,000 feet AGL
Clouds:sky clear below 12,000 feet AGL
QC Flag:automated observation with no human augmentation
Text:KHLB 122155Z AUTO 05005KT 10SM FEW029 SCT035 28/21 A3005 RMK A01
Temperature: 28.0°C ( 82°F)
Dewpoint: 21.0°C ( 70°F) [RH = 66%]
Pressure (altimeter):30.05 inches Hg (1017.7 mb)
Winds:from the NE (50 degrees) at 6 MPH (5 knots; 2.6 m/s)
Visibility:10 or more sm (16+ km)
Ceiling:at least 12,000 feet AGL
Clouds: few clouds at 2900 feet AGL, scattered clouds at 3500 feet AGL
QC Flag:automated observation with no human augmentation
Text:KHLB 122135Z AUTO 12004KT 10SM SCT028 SCT036 28/22 A3006 RMK A01
Temperature: 28.0°C ( 82°F)
Dewpoint: 22.0°C ( 72°F) [RH = 70%]
Pressure (altimeter):30.06 inches Hg (1018.0 mb)
Winds:from the ESE (120 degrees) at 5 MPH (4 knots; 2.1 m/s)
Visibility:10 or more sm (16+ km)
Ceiling:at least 12,000 feet AGL
Clouds: scattered clouds at 2800 feet AGL, scattered clouds at 3600 feet AGL
QC Flag:automated observation with no human augmentation
Text:KHLB 122115Z AUTO 00000KT 10SM CLR 28/21 A3006 RMK A01
Temperature: 28.0°C ( 82°F)
Dewpoint: 21.0°C ( 70°F) [RH = 66%]
Pressure (altimeter):30.06 inches Hg (1018.0 mb)
Winds:calm
Visibility:10 or more sm (16+ km)
Ceiling:at least 12,000 feet AGL
Clouds:sky clear below 12,000 feet AGL
QC Flag:automated observation with no human augmentation
Text:KHLB 122055Z AUTO 00000KT 10SM CLR 28/21 A3007 RMK A01
Temperature: 28.0°C ( 82°F)
Dewpoint: 21.0°C ( 70°F) [RH = 66%]
Pressure (altimeter):30.07 inches Hg (1018.4 mb)
Winds:calm
Visibility:10 or more sm (16+ km)
Ceiling:at least 12,000 feet AGL
Clouds:sky clear below 12,000 feet AGL
QC Flag:automated observation with no human augmentation
Text:KHLB 122035Z AUTO 00000KT 10SM FEW029 27/21 A3007 RMK A01
Temperature: 27.0°C ( 81°F)
Dewpoint: 21.0°C ( 70°F) [RH = 70%]
Pressure (altimeter):30.07 inches Hg (1018.4 mb)
Winds:calm
Visibility:10 or more sm (16+ km)
Ceiling:at least 12,000 feet AGL
Clouds: few clouds at 2900 feet AGL
QC Flag:automated observation with no human augmentation
Text:KHLB 122015Z AUTO 00000KT 10SM SCT029 28/21 A3007 RMK A01
Temperature: 28.0°C ( 82°F)
Dewpoint: 21.0°C ( 70°F) [RH = 66%]
Pressure (altimeter):30.07 inches Hg (1018.4 mb)
Winds:calm
Visibility:10 or more sm (16+ km)
Ceiling:at least 12,000 feet AGL
Clouds: scattered clouds at 2900 feet AGL
QC Flag:automated observation with no human augmentation
Text:KHLB 121955Z AUTO 06003KT 10SM CLR 27/21 A3007 RMK A01
Temperature: 27.0°C ( 81°F)
Dewpoint: 21.0°C ( 70°F) [RH = 70%]
Pressure (altimeter):30.07 inches Hg (1018.4 mb)
Winds:from the ENE (60 degrees) at 3 MPH (3 knots; 1.5 m/s)
Visibility:10 or more sm (16+ km)
Ceiling:at least 12,000 feet AGL
Clouds:sky clear below 12,000 feet AGL
QC Flag:automated observation with no human augmentation
Text:KHLB 121935Z AUTO 07004KT 10SM CLR 27/21 A3007 RMK A01
Temperature: 27.0°C ( 81°F)
Dewpoint: 21.0°C ( 70°F) [RH = 70%]
Pressure (altimeter):30.07 inches Hg (1018.4 mb)
Winds:from the ENE (70 degrees) at 5 MPH (4 knots; 2.1 m/s)
Visibility:10 or more sm (16+ km)
Ceiling:at least 12,000 feet AGL
Clouds:sky clear below 12,000 feet AGL
QC Flag:automated observation with no human augmentation
Text:KHLB 121915Z AUTO 07004KT 10SM FEW027 FEW033 27/21 A3007 RMK A01
Temperature: 27.0°C ( 81°F)
Dewpoint: 21.0°C ( 70°F) [RH = 70%]
Pressure (altimeter):30.07 inches Hg (1018.4 mb)
Winds:from the ENE (70 degrees) at 5 MPH (4 knots; 2.1 m/s)
Visibility:10 or more sm (16+ km)
Ceiling:at least 12,000 feet AGL
Clouds: few clouds at 2700 feet AGL, few clouds at 3300 feet AGL
QC Flag:automated observation with no human augmentation
Text:KHLB 121855Z AUTO 12004KT 10SM FEW027 28/22 A3008 RMK A01
Temperature: 28.0°C ( 82°F)
Dewpoint: 22.0°C ( 72°F) [RH = 70%]
Pressure (altimeter):30.08 inches Hg (1018.7 mb)
Winds:from the ESE (120 degrees) at 5 MPH (4 knots; 2.1 m/s)
Visibility:10 or more sm (16+ km)
Ceiling:at least 12,000 feet AGL
Clouds: few clouds at 2700 feet AGL
QC Flag:automated observation with no human augmentation
Text:KHLB 121835Z AUTO 00000KT 10SM CLR 27/22 A3008 RMK A01
Temperature: 27.0°C ( 81°F)
Dewpoint: 22.0°C ( 72°F) [RH = 74%]
Pressure (altimeter):30.08 inches Hg (1018.7 mb)
Winds:calm
Visibility:10 or more sm (16+ km)
Ceiling:at least 12,000 feet AGL
Clouds:sky clear below 12,000 feet AGL
QC Flag:automated observation with no human augmentation
Text:KHLB 121815Z AUTO 09005KT 10SM FEW026 27/22 A3009 RMK A01
Temperature: 27.0°C ( 81°F)
Dewpoint: 22.0°C ( 72°F) [RH = 74%]
Pressure (altimeter):30.09 inches Hg (1019.0 mb)
Winds:from the E (90 degrees) at 6 MPH (5 knots; 2.6 m/s)
Visibility:10 or more sm (16+ km)
Ceiling:at least 12,000 feet AGL
Clouds: few clouds at 2600 feet AGL
QC Flag:automated observation with no human augmentation
Text:KHLB 121755Z AUTO 00000KT 10SM FEW025 SCT034 27/22 A3009 RMK A01
Temperature: 27.0°C ( 81°F)
Dewpoint: 22.0°C ( 72°F) [RH = 74%]
Pressure (altimeter):30.09 inches Hg (1019.0 mb)
Winds:calm
Visibility:10 or more sm (16+ km)
Ceiling:at least 12,000 feet AGL
Clouds: few clouds at 2500 feet AGL, scattered clouds at 3400 feet AGL
QC Flag:automated observation with no human augmentation
Text:KHLB 121735Z AUTO 11005KT 10SM SCT024 SCT032 27/22 A3009 RMK A01
Temperature: 27.0°C ( 81°F)
Dewpoint: 22.0°C ( 72°F) [RH = 74%]
Pressure (altimeter):30.09 inches Hg (1019.0 mb)
Winds:from the ESE (110 degrees) at 6 MPH (5 knots; 2.6 m/s)
Visibility:10 or more sm (16+ km)
Ceiling:at least 12,000 feet AGL
Clouds: scattered clouds at 2400 feet AGL, scattered clouds at 3200 feet AGL
QC Flag:automated observation with no human augmentation
Text:KHLB 121715Z AUTO 07004KT 10SM SCT024 SCT030 27/22 A3009 RMK A01
Temperature: 27.0°C ( 81°F)
Dewpoint: 22.0°C ( 72°F) [RH = 74%]
Pressure (altimeter):30.09 inches Hg (1019.0 mb)
Winds:from the ENE (70 degrees) at 5 MPH (4 knots; 2.1 m/s)
Visibility:10 or more sm (16+ km)
Ceiling:at least 12,000 feet AGL
Clouds: scattered clouds at 2400 feet AGL, scattered clouds at 3000 feet AGL
QC Flag:automated observation with no human augmentation
Text:KHLB 121655Z AUTO VRB03KT 10SM CLR 27/22 A3009 RMK A01
Temperature: 27.0°C ( 81°F)
Dewpoint: 22.0°C ( 72°F) [RH = 74%]
Pressure (altimeter):30.09 inches Hg (1019.0 mb)
Winds:variable direction winds at 3 MPH (3 knots; 1.5 m/s)
Visibility:10 or more sm (16+ km)
Ceiling:at least 12,000 feet AGL
Clouds:sky clear below 12,000 feet AGL
QC Flag:automated observation with no human augmentation
Text:KHLB 121635Z AUTO 10006KT 10SM CLR 27/23 A3009 RMK A01
Temperature: 27.0°C ( 81°F)
Dewpoint: 23.0°C ( 73°F) [RH = 79%]
Pressure (altimeter):30.09 inches Hg (1019.0 mb)
Winds:from the E (100 degrees) at 7 MPH (6 knots; 3.1 m/s)
Visibility:10 or more sm (16+ km)
Ceiling:at least 12,000 feet AGL
Clouds:sky clear below 12,000 feet AGL
QC Flag:automated observation with no human augmentation
Text:KHLB 121615Z AUTO 10004KT 10SM CLR 27/22 A3010 RMK A01
Temperature: 27.0°C ( 81°F)
Dewpoint: 22.0°C ( 72°F) [RH = 74%]
Pressure (altimeter):30.10 inches Hg (1019.4 mb)
Winds:from the E (100 degrees) at 5 MPH (4 knots; 2.1 m/s)
Visibility:10 or more sm (16+ km)
Ceiling:at least 12,000 feet AGL
Clouds:sky clear below 12,000 feet AGL
QC Flag:automated observation with no human augmentation
Text:KHLB 121555Z AUTO 11006KT 10SM CLR 26/22 A3010 RMK A01
Temperature: 26.0°C ( 79°F)
Dewpoint: 22.0°C ( 72°F) [RH = 79%]
Pressure (altimeter):30.10 inches Hg (1019.4 mb)
Winds:from the ESE (110 degrees) at 7 MPH (6 knots; 3.1 m/s)
Visibility:10 or more sm (16+ km)
Ceiling:at least 12,000 feet AGL
Clouds:sky clear below 12,000 feet AGL
QC Flag:automated observation with no human augmentation
Text:KHLB 121535Z AUTO 10004KT 10SM FEW040 26/23 A3010 RMK A01
Temperature: 26.0°C ( 79°F)
Dewpoint: 23.0°C ( 73°F) [RH = 84%]
Pressure (altimeter):30.10 inches Hg (1019.4 mb)
Winds:from the E (100 degrees) at 5 MPH (4 knots; 2.1 m/s)
Visibility:10 or more sm (16+ km)
Ceiling:at least 12,000 feet AGL
Clouds: few clouds at 4000 feet AGL
QC Flag:automated observation with no human augmentation
Text:KHLB 121515Z AUTO 00000KT 10SM CLR 25/24 A3010 RMK A01
Temperature: 25.0°C ( 77°F)
Dewpoint: 24.0°C ( 75°F) [RH = 94%]
Pressure (altimeter):30.10 inches Hg (1019.4 mb)
Winds:calm
Visibility:10 or more sm (16+ km)
Ceiling:at least 12,000 feet AGL
Clouds:sky clear below 12,000 feet AGL
QC Flag:automated observation with no human augmentation
Text:KHLB 121455Z AUTO 00000KT 10SM SCT037 SCT043 24/24 A3010 RMK A01
Temperature: 24.0°C ( 75°F)
Dewpoint: 24.0°C ( 75°F) [RH = 100%]
Pressure (altimeter):30.10 inches Hg (1019.4 mb)
Winds:calm
Visibility:10 or more sm (16+ km)
Ceiling:at least 12,000 feet AGL
Clouds: scattered clouds at 3700 feet AGL, scattered clouds at 4300 feet AGL
QC Flag:automated observation with no human augmentation
Text:KHLB 121435Z AUTO 00000KT 10SM BKN034 OVC039 23/23 A3010 RMK A01
Temperature: 23.0°C ( 73°F)
Dewpoint: 23.0°C ( 73°F) [RH = 100%]
Pressure (altimeter):30.10 inches Hg (1019.4 mb)
Winds:calm
Visibility:10 or more sm (16+ km)
Ceiling:3400 feet AGL
Clouds: broken clouds at 3400 feet AGL, overcast cloud deck at 3900 feet AGL
QC Flag:automated observation with no human augmentation
Text:KHLB 121415Z AUTO 00000KT 10SM OVC033 22/22 A3010 RMK A01
Temperature: 22.0°C ( 72°F)
Dewpoint: 22.0°C ( 72°F) [RH = 100%]
Pressure (altimeter):30.10 inches Hg (1019.4 mb)
Winds:calm
Visibility:10 or more sm (16+ km)
Ceiling:3300 feet AGL
Clouds: overcast cloud deck at 3300 feet AGL
QC Flag:automated observation with no human augmentation
Text:KHLB 121355Z AUTO 00000KT 10SM OVC032 22/22 A3010 RMK A01
Temperature: 22.0°C ( 72°F)
Dewpoint: 22.0°C ( 72°F) [RH = 100%]
Pressure (altimeter):30.10 inches Hg (1019.4 mb)
Winds:calm
Visibility:10 or more sm (16+ km)
Ceiling:3200 feet AGL
Clouds: overcast cloud deck at 3200 feet AGL
QC Flag:automated observation with no human augmentation
Text:KHLB 121335Z AUTO 00000KT 10SM BKN032 21/21 A3010 RMK A01
Temperature: 21.0°C ( 70°F)
Dewpoint: 21.0°C ( 70°F) [RH = 100%]
Pressure (altimeter):30.10 inches Hg (1019.4 mb)
Winds:calm
Visibility:10 or more sm (16+ km)
Ceiling:3200 feet AGL
Clouds: broken clouds at 3200 feet AGL
QC Flag:automated observation with no human augmentation
Text:KHLB 121315Z AUTO 00000KT 9SM FEW032 21/21 A3010 RMK A01
Temperature: 21.0°C ( 70°F)
Dewpoint: 21.0°C ( 70°F) [RH = 100%]
Pressure (altimeter):30.10 inches Hg (1019.4 mb)
Winds:calm
Visibility: 9 sm ( 14 km)
Ceiling:at least 12,000 feet AGL
Clouds: few clouds at 3200 feet AGL
QC Flag:automated observation with no human augmentation
Text:KHLB 121255Z AUTO 00000KT 9SM CLR 20/20 A3010 RMK A01
Temperature: 20.0°C ( 68°F)
Dewpoint: 20.0°C ( 68°F) [RH = 100%]
Pressure (altimeter):30.10 inches Hg (1019.4 mb)
Winds:calm
Visibility: 9 sm ( 14 km)
Ceiling:at least 12,000 feet AGL
Clouds:sky clear below 12,000 feet AGL
QC Flag:automated observation with no human augmentation
Text:KHLB 121235Z AUTO 02004KT 7SM CLR 20/20 A3009 RMK A01
Temperature: 20.0°C ( 68°F)
Dewpoint: 20.0°C ( 68°F) [RH = 100%]
Pressure (altimeter):30.09 inches Hg (1019.0 mb)
Winds:from the NNE (20 degrees) at 5 MPH (4 knots; 2.1 m/s)
Visibility: 7 sm ( 11 km)
Ceiling:at least 12,000 feet AGL
Clouds:sky clear below 12,000 feet AGL
QC Flag:automated observation with no human augmentation
Text:KHLB 121215Z AUTO 00000KT 5SM BR CLR 20/20 A3009 RMK A01
Temperature: 20.0°C ( 68°F)
Dewpoint: 20.0°C ( 68°F) [RH = 100%]
Pressure (altimeter):30.09 inches Hg (1019.0 mb)
Winds:calm
Visibility: 5 sm ( 8 km)
Ceiling:at least 12,000 feet AGL
Clouds:sky clear below 12,000 feet AGL
Weather:BR (mist)
QC Flag:automated observation with no human augmentation
Text:KHLB 121155Z AUTO 00000KT 4SM BR FEW002 19/19 A3009 RMK A01
Temperature: 19.0°C ( 66°F)
Dewpoint: 19.0°C ( 66°F) [RH = 100%]
Pressure (altimeter):30.09 inches Hg (1019.0 mb)
Winds:calm
Visibility: 4 sm ( 6 km)
Ceiling:at least 12,000 feet AGL
Clouds: few clouds at 200 feet AGL
Weather:BR (mist)
QC Flag:automated observation with no human augmentation
Text:KHLB 121135Z AUTO 00000KT 4SM BR CLR 19/19 A3008 RMK A01
Temperature: 19.0°C ( 66°F)
Dewpoint: 19.0°C ( 66°F) [RH = 100%]
Pressure (altimeter):30.08 inches Hg (1018.7 mb)
Winds:calm
Visibility: 4 sm ( 6 km)
Ceiling:at least 12,000 feet AGL
Clouds:sky clear below 12,000 feet AGL
Weather:BR (mist)
QC Flag:automated observation with no human augmentation
Text:KHLB 121115Z AUTO 00000KT 4SM BR CLR 19/19 A3008 RMK A01
Temperature: 19.0°C ( 66°F)
Dewpoint: 19.0°C ( 66°F) [RH = 100%]
Pressure (altimeter):30.08 inches Hg (1018.7 mb)
Winds:calm
Visibility: 4 sm ( 6 km)
Ceiling:at least 12,000 feet AGL
Clouds:sky clear below 12,000 feet AGL
Weather:BR (mist)
QC Flag:automated observation with no human augmentation
Text:KHLB 121055Z AUTO 00000KT 6SM BR CLR 19/19 A3007 RMK A01
Temperature: 19.0°C ( 66°F)
Dewpoint: 19.0°C ( 66°F) [RH = 100%]
Pressure (altimeter):30.07 inches Hg (1018.4 mb)
Winds:calm
Visibility: 6 sm ( 10 km)
Ceiling:at least 12,000 feet AGL
Clouds:sky clear below 12,000 feet AGL
Weather:BR (mist)
QC Flag:automated observation with no human augmentation
Text:KHLB 121035Z AUTO 00000KT 4SM BR FEW002 19/19 A3006 RMK A01
Temperature: 19.0°C ( 66°F)
Dewpoint: 19.0°C ( 66°F) [RH = 100%]
Pressure (altimeter):30.06 inches Hg (1018.0 mb)
Winds:calm
Visibility: 4 sm ( 6 km)
Ceiling:at least 12,000 feet AGL
Clouds: few clouds at 200 feet AGL
Weather:BR (mist)
QC Flag:automated observation with no human augmentation
Text:KHLB 121015Z AUTO 00000KT 1 1/4SM BR BKN002 19/19 A3006 RMK A01
Temperature: 19.0°C ( 66°F)
Dewpoint: 19.0°C ( 66°F) [RH = 100%]
Pressure (altimeter):30.06 inches Hg (1018.0 mb)
Winds:calm
Visibility: 1.25 sm ( 2.01 km)
Ceiling:200 feet AGL
Clouds: broken clouds at 200 feet AGL
Weather:BR (mist)
QC Flag:automated observation with no human augmentation
Text:KHLB 120955Z AUTO 00000KT 1 1/2SM BR CLR 19/19 A3006 RMK A01 VIS 3/4V3
Temperature: 19.0°C ( 66°F)
Dewpoint: 19.0°C ( 66°F) [RH = 100%]
Pressure (altimeter):30.06 inches Hg (1018.0 mb)
Winds:calm
Visibility: 1.50 sm ( 2.41 km)
Ceiling:at least 12,000 feet AGL
Clouds:sky clear below 12,000 feet AGL
Weather:BR (mist)
QC Flag:automated observation with no human augmentation
Text:KHLB 120935Z AUTO 00000KT 3SM BR FEW033 19/19 A3006 RMK A01
Temperature: 19.0°C ( 66°F)
Dewpoint: 19.0°C ( 66°F) [RH = 100%]
Pressure (altimeter):30.06 inches Hg (1018.0 mb)
Winds:calm
Visibility: 3 sm ( 5 km)
Ceiling:at least 12,000 feet AGL
Clouds: few clouds at 3300 feet AGL
Weather:BR (mist)
QC Flag:automated observation with no human augmentation
Text:KHLB 120915Z AUTO 00000KT 2 1/2SM BR CLR 19/19 A3005 RMK A01
Temperature: 19.0°C ( 66°F)
Dewpoint: 19.0°C ( 66°F) [RH = 100%]
Pressure (altimeter):30.05 inches Hg (1017.7 mb)
Winds:calm
Visibility: 2.50 sm ( 4.02 km)
Ceiling:at least 12,000 feet AGL
Clouds:sky clear below 12,000 feet AGL
Weather:BR (mist)
QC Flag:automated observation with no human augmentation
Text:KHLB 120855Z AUTO 00000KT 1 1/2SM BR CLR 19/19 A3005 RMK A01
Temperature: 19.0°C ( 66°F)
Dewpoint: 19.0°C ( 66°F) [RH = 100%]
Pressure (altimeter):30.05 inches Hg (1017.7 mb)
Winds:calm
Visibility: 1.50 sm ( 2.41 km)
Ceiling:at least 12,000 feet AGL
Clouds:sky clear below 12,000 feet AGL
Weather:BR (mist)
QC Flag:automated observation with no human augmentation